createdAt,value
2022-10-15T00:00:40.431Z,17.10
2022-10-15T00:03:07.409Z,17.10
2022-10-15T00:05:38.359Z,17.10
2022-10-15T00:08:06.181Z,17.20
2022-10-15T00:10:33.704Z,17.20
2022-10-15T00:13:00.664Z,17.10
2022-10-15T00:15:28.062Z,17.20
2022-10-15T00:17:54.810Z,17.20
2022-10-15T00:20:21.950Z,17.20
2022-10-15T00:22:48.790Z,17.10
2022-10-15T00:25:15.600Z,17.20
2022-10-15T00:27:42.418Z,17.20
2022-10-15T00:30:09.851Z,17.10
2022-10-15T00:32:36.678Z,17.20
2022-10-15T00:35:03.718Z,17.20
2022-10-15T00:37:30.512Z,17.20
2022-10-15T00:39:57.246Z,17.20
2022-10-15T00:42:24.424Z,17.20
2022-10-15T00:44:57.231Z,17.20
2022-10-15T00:47:37.573Z,17.20
2022-10-15T00:50:10.556Z,17.20
2022-10-15T00:52:53.587Z,17.20
2022-10-15T00:55:30.322Z,17.20
2022-10-15T00:58:00.548Z,17.20
2022-10-15T01:00:27.445Z,17.20
2022-10-15T01:02:54.306Z,17.20
2022-10-15T01:05:21.967Z,17.20
2022-10-15T01:07:48.767Z,17.20
2022-10-15T01:10:16.858Z,17.20
2022-10-15T01:12:55.673Z,17.20
2022-10-15T01:15:46.375Z,17.30
2022-10-15T01:18:20.829Z,17.20
2022-10-15T01:20:56.687Z,17.20
2022-10-15T01:23:32.379Z,17.20
2022-10-15T01:26:14.419Z,17.20
2022-10-15T01:29:14.446Z,17.20
2022-10-15T01:31:57.345Z,17.30
2022-10-15T01:34:35.282Z,17.20
2022-10-15T01:37:16.833Z,17.20
2022-10-15T01:39:53.507Z,17.30
2022-10-15T01:42:34.473Z,17.20
2022-10-15T01:45:07.242Z,17.30
2022-10-15T01:47:56.136Z,17.20
2022-10-15T01:50:25.917Z,17.30
2022-10-15T01:52:55.352Z,17.30
2022-10-15T01:55:27.348Z,17.30
2022-10-15T01:57:56.952Z,17.20
2022-10-15T02:00:24.076Z,17.30
2022-10-15T02:02:50.821Z,16.60
2022-10-15T02:05:25.979Z,17.30
2022-10-15T02:08:04.150Z,17.30
2022-10-15T02:10:42.910Z,17.20
2022-10-15T02:13:51.946Z,17.30
2022-10-15T02:16:28.117Z,17.20
2022-10-15T02:19:05.963Z,17.30
2022-10-15T02:21:47.309Z,17.30
2022-10-15T02:24:32.094Z,17.30
2022-10-15T02:27:01.102Z,17.30
2022-10-15T02:29:33.244Z,17.30
2022-10-15T02:32:01.526Z,17.30
2022-10-15T02:34:31.144Z,17.20
2022-10-15T02:37:01.241Z,17.20
2022-10-15T02:39:28.288Z,17.20
2022-10-15T02:41:56.630Z,17.10
2022-10-15T02:44:23.510Z,17.10
2022-10-15T02:46:50.350Z,17.20
2022-10-15T02:49:17.212Z,17.30
2022-10-15T02:51:44.133Z,17.30
2022-10-15T02:54:10.930Z,17.40
2022-10-15T02:56:39.422Z,17.30
2022-10-15T02:59:06.640Z,17.40
2022-10-15T03:01:34.267Z,17.40
2022-10-15T03:04:01.863Z,17.40
2022-10-15T03:06:28.665Z,17.40
2022-10-15T03:08:55.609Z,17.50
2022-10-15T03:11:22.359Z,17.50
2022-10-15T03:13:49.049Z,17.30
2022-10-15T03:16:15.843Z,17.30
2022-10-15T03:18:42.582Z,17.30
2022-10-15T03:21:09.611Z,17.30
2022-10-15T03:23:36.373Z,17.40
2022-10-15T03:26:03.326Z,17.50
2022-10-15T03:28:30.438Z,17.50
2022-10-15T03:30:57.242Z,17.50
2022-10-15T03:33:25.249Z,17.50
2022-10-15T03:35:52.846Z,17.50
2022-10-15T03:38:19.959Z,17.50
2022-10-15T03:40:47.000Z,17.40
2022-10-15T03:43:13.928Z,17.50
2022-10-15T03:45:40.944Z,17.50
2022-10-15T03:48:07.793Z,17.50
2022-10-15T03:50:34.778Z,17.50
2022-10-15T03:53:06.068Z,17.50
2022-10-15T03:55:32.945Z,17.40
2022-10-15T03:57:59.860Z,17.40
2022-10-15T04:00:27.044Z,17.50
2022-10-15T04:02:53.899Z,17.50
2022-10-15T04:05:20.939Z,17.50
2022-10-15T04:07:47.835Z,17.50
2022-10-15T04:10:14.571Z,17.50
2022-10-15T04:12:41.342Z,17.50
2022-10-15T04:15:08.579Z,17.50
2022-10-15T04:17:35.465Z,17.50
2022-10-15T04:20:02.308Z,17.50
2022-10-15T04:22:29.125Z,17.50
2022-10-15T04:24:55.932Z,17.60
2022-10-15T04:27:22.891Z,17.60
2022-10-15T04:29:49.949Z,17.60
2022-10-15T04:32:17.620Z,17.60
2022-10-15T04:34:46.424Z,17.60
2022-10-15T04:37:14.098Z,17.60
2022-10-15T04:39:41.097Z,17.60
2022-10-15T04:42:07.912Z,17.60
2022-10-15T04:44:34.690Z,17.60
2022-10-15T04:47:02.363Z,17.60
2022-10-15T04:49:29.201Z,17.60
2022-10-15T04:51:56.380Z,17.60
2022-10-15T04:54:23.270Z,17.60
2022-10-15T04:56:50.055Z,17.60
2022-10-15T04:59:16.756Z,17.60
2022-10-15T05:01:43.701Z,17.50
2022-10-15T05:04:12.291Z,17.50
2022-10-15T05:06:39.285Z,17.60
2022-10-15T05:09:06.042Z,17.60
2022-10-15T05:11:37.038Z,17.60
2022-10-15T05:14:03.964Z,17.60
2022-10-15T05:16:31.204Z,17.60
2022-10-15T05:19:04.545Z,17.60
2022-10-15T05:21:32.467Z,17.60
2022-10-15T05:23:59.794Z,17.60
2022-10-15T05:26:28.275Z,17.60
2022-10-15T05:28:57.827Z,17.50
2022-10-15T05:31:26.448Z,17.60
2022-10-15T05:33:54.132Z,17.60
2022-10-15T05:36:28.468Z,17.60
2022-10-15T05:39:00.480Z,17.60
2022-10-15T05:41:28.145Z,17.60
2022-10-15T05:43:56.884Z,17.60
2022-10-15T05:46:24.023Z,17.60
2022-10-15T05:48:56.524Z,17.60
2022-10-15T05:51:24.789Z,17.60
2022-10-15T05:53:55.906Z,17.60
2022-10-15T05:56:23.483Z,17.60
2022-10-15T05:58:50.665Z,17.60
2022-10-15T06:01:17.804Z,17.70
2022-10-15T06:03:44.930Z,17.70
2022-10-15T06:06:26.519Z,17.70
2022-10-15T06:08:54.942Z,17.70
2022-10-15T06:11:22.209Z,17.70
2022-10-15T06:13:48.919Z,17.70
2022-10-15T06:16:20.845Z,17.80
2022-10-15T06:18:52.519Z,17.70
2022-10-15T06:21:19.336Z,17.70
2022-10-15T06:23:46.041Z,17.70
2022-10-15T06:26:12.998Z,17.80
2022-10-15T06:28:40.318Z,17.90
2022-10-15T06:31:08.075Z,17.80
2022-10-15T06:33:35.666Z,17.80
2022-10-15T06:36:10.620Z,17.90
2022-10-15T06:38:37.739Z,17.90
2022-10-15T06:41:05.633Z,17.90
2022-10-15T06:43:34.804Z,17.90
2022-10-15T06:46:04.372Z,17.90
2022-10-15T06:48:32.732Z,17.90
2022-10-15T06:51:00.940Z,17.90
2022-10-15T06:53:28.784Z,17.90
2022-10-15T06:56:02.770Z,17.90
2022-10-15T06:58:31.425Z,18.00
2022-10-15T07:01:03.592Z,18.00
2022-10-15T07:03:30.800Z,18.00
2022-10-15T07:06:03.615Z,18.00
2022-10-15T07:08:30.939Z,18.00
2022-10-15T07:10:58.027Z,18.00
2022-10-15T07:13:24.959Z,18.10
2022-10-15T07:15:54.223Z,18.10
2022-10-15T07:18:21.312Z,18.10
2022-10-15T07:20:48.460Z,18.00
2022-10-15T07:23:15.871Z,18.10
2022-10-15T07:25:42.644Z,18.00
2022-10-15T07:28:09.759Z,18.00
2022-10-15T07:30:36.693Z,18.00
2022-10-15T07:33:03.622Z,18.00
2022-10-15T07:35:30.458Z,18.00
2022-10-15T07:38:01.872Z,18.00
2022-10-15T07:40:28.934Z,18.00
2022-10-15T07:42:57.035Z,18.00
2022-10-15T07:45:24.915Z,18.00
2022-10-15T07:47:59.676Z,17.90
2022-10-15T07:50:29.247Z,18.00
2022-10-15T07:52:59.199Z,18.00
2022-10-15T07:55:26.092Z,18.00
2022-10-15T07:57:58.068Z,18.00
2022-10-15T08:00:25.305Z,18.10
2022-10-15T08:02:52.137Z,18.10
2022-10-15T08:05:18.910Z,18.10
2022-10-15T08:07:45.648Z,18.20
2022-10-15T08:10:13.511Z,18.20
2022-10-15T08:12:40.554Z,18.20
2022-10-15T08:15:08.790Z,18.30
2022-10-15T08:17:35.736Z,18.30
2022-10-15T08:20:02.743Z,18.40
2022-10-15T08:22:29.499Z,18.30
2022-10-15T08:24:56.320Z,18.40
2022-10-15T08:27:23.293Z,18.50
2022-10-15T08:29:50.040Z,18.50
2022-10-15T08:32:16.726Z,18.60
2022-10-15T08:34:43.546Z,18.50
2022-10-15T08:37:10.421Z,18.50
2022-10-15T08:39:37.231Z,18.50
2022-10-15T08:42:08.052Z,18.50
2022-10-15T08:44:50.065Z,18.50
2022-10-15T08:47:28.856Z,18.50
2022-10-15T08:49:58.580Z,18.50
2022-10-15T08:52:40.265Z,18.50
2022-10-15T08:55:08.964Z,18.40
2022-10-15T08:57:39.435Z,18.40
2022-10-15T09:00:13.082Z,18.30
2022-10-15T09:03:11.125Z,18.30
2022-10-15T09:05:55.769Z,18.30
2022-10-15T09:08:31.353Z,18.30
2022-10-15T09:11:25.942Z,18.30
2022-10-15T09:13:52.972Z,18.30
2022-10-15T09:16:33.963Z,18.30
2022-10-15T09:19:05.082Z,18.20
2022-10-15T09:21:35.327Z,18.20
2022-10-15T09:24:03.133Z,18.20
2022-10-15T09:26:33.395Z,18.20
2022-10-15T09:29:32.641Z,18.30
2022-10-15T09:32:27.556Z,18.30
2022-10-15T09:35:12.322Z,18.30
2022-10-15T09:38:01.108Z,18.30
2022-10-15T09:40:50.729Z,18.30
2022-10-15T09:43:28.288Z,18.30
2022-10-15T09:45:55.202Z,18.30
2022-10-15T09:48:23.729Z,18.30
2022-10-15T09:50:58.288Z,18.30
2022-10-15T09:53:47.859Z,18.30
2022-10-15T09:56:26.522Z,18.40
2022-10-15T09:58:58.223Z,18.40
2022-10-15T10:01:27.975Z,18.40
2022-10-15T10:04:20.400Z,18.40
2022-10-15T10:06:57.913Z,18.50
2022-10-15T10:09:38.252Z,18.50
2022-10-15T10:12:08.402Z,18.50
2022-10-15T10:15:04.405Z,18.60
2022-10-15T10:17:31.720Z,18.60
2022-10-15T10:20:10.889Z,18.60
2022-10-15T10:22:47.678Z,18.60
2022-10-15T10:25:29.626Z,18.70
2022-10-15T10:28:03.364Z,18.80
2022-10-15T10:30:35.043Z,18.80
2022-10-15T10:33:03.265Z,18.70
2022-10-15T10:35:43.529Z,18.80
2022-10-15T10:38:35.122Z,18.80
2022-10-15T10:41:10.963Z,18.90
2022-10-15T10:43:40.027Z,18.90
2022-10-15T10:46:15.716Z,18.90
2022-10-15T10:48:45.341Z,18.90
2022-10-15T10:51:19.254Z,19.00
2022-10-15T10:54:06.488Z,19.10
2022-10-15T10:56:42.517Z,19.10
2022-10-15T10:59:35.741Z,19.10
2022-10-15T11:02:04.658Z,19.10
2022-10-15T11:04:34.833Z,19.10
2022-10-15T11:07:05.660Z,19.10
2022-10-15T11:09:52.357Z,19.20
2022-10-15T11:12:25.660Z,19.20
2022-10-15T11:15:21.486Z,19.20
2022-10-15T11:17:53.990Z,19.30
2022-10-15T11:20:47.505Z,19.30
2022-10-15T11:23:39.963Z,19.30
2022-10-15T11:26:52.115Z,19.30
2022-10-15T11:30:00.028Z,19.40
2022-10-15T11:32:54.683Z,19.40
2022-10-15T11:35:53.387Z,19.40
2022-10-15T11:38:43.738Z,19.40
2022-10-15T11:41:34.356Z,19.40
2022-10-15T11:44:22.647Z,19.40
2022-10-15T11:47:06.002Z,19.40
2022-10-15T11:50:05.287Z,19.40
2022-10-15T11:53:01.390Z,19.40
2022-10-15T11:55:37.184Z,19.40
2022-10-15T11:58:28.741Z,19.40
2022-10-15T12:01:06.848Z,19.50
2022-10-15T12:03:43.703Z,19.60
2022-10-15T12:06:16.309Z,19.60
2022-10-15T12:08:44.894Z,19.70
2022-10-15T12:11:28.320Z,19.80
2022-10-15T12:14:05.672Z,19.80
2022-10-15T12:19:48.010Z,20.00
2022-10-15T12:22:50.263Z,20.00
2022-10-15T12:25:35.110Z,20.00
2022-10-15T12:28:17.102Z,20.10
2022-10-15T12:30:58.694Z,20.10
2022-10-15T12:33:54.641Z,20.10
2022-10-15T12:36:30.437Z,20.00
2022-10-15T12:39:34.338Z,20.10
2022-10-15T12:42:33.307Z,20.10
2022-10-15T12:45:03.354Z,20.20
2022-10-15T12:47:51.174Z,20.10
2022-10-15T12:50:21.264Z,20.20
2022-10-15T12:53:05.644Z,20.20
2022-10-15T12:55:37.741Z,20.20
2022-10-15T12:58:06.349Z,20.20
2022-10-15T13:00:41.716Z,20.20
2022-10-15T13:03:14.254Z,20.20
2022-10-15T13:05:41.324Z,20.20
2022-10-15T13:08:16.581Z,20.20
2022-10-15T13:10:51.980Z,20.20
2022-10-15T13:13:23.772Z,20.20
2022-10-15T13:16:01.749Z,20.20
2022-10-15T13:18:31.416Z,20.20
2022-10-15T13:20:59.519Z,20.20
2022-10-15T13:23:32.039Z,20.20
2022-10-15T13:26:30.272Z,20.20
2022-10-15T13:28:58.194Z,20.20
2022-10-15T13:31:37.195Z,20.20
2022-10-15T13:34:32.038Z,20.30
2022-10-15T13:37:01.384Z,20.20
2022-10-15T13:39:39.545Z,20.20
2022-10-15T13:42:08.290Z,20.20
2022-10-15T13:44:35.944Z,20.20
2022-10-15T13:47:03.464Z,20.20
2022-10-15T13:49:30.372Z,20.20
2022-10-15T13:51:57.463Z,20.20
2022-10-15T13:54:29.598Z,20.10
2022-10-15T13:56:59.793Z,20.00
2022-10-15T13:59:29.778Z,19.90
2022-10-15T14:02:02.270Z,19.90
2022-10-15T14:04:31.616Z,19.80
2022-10-15T14:07:02.809Z,19.70
2022-10-15T14:09:35.726Z,19.60
2022-10-15T14:12:06.376Z,19.60
2022-10-15T14:14:34.990Z,19.50
2022-10-15T14:17:06.675Z,19.50
2022-10-15T14:19:36.876Z,19.50
2022-10-15T14:22:04.673Z,19.50
2022-10-15T14:24:34.711Z,19.50
2022-10-15T14:27:05.010Z,19.60
2022-10-15T14:29:41.675Z,19.60
2022-10-15T14:32:46.966Z,19.60
2022-10-15T14:35:32.806Z,19.50
2022-10-15T14:38:00.782Z,19.50
2022-10-15T14:40:28.151Z,19.50
2022-10-15T14:43:03.649Z,19.50
2022-10-15T14:45:35.790Z,19.50
2022-10-15T14:48:20.177Z,19.50
2022-10-15T14:50:47.529Z,19.50
2022-10-15T14:53:19.957Z,19.50
2022-10-15T14:56:13.725Z,19.50
2022-10-15T14:58:40.555Z,19.50
2022-10-15T15:01:08.562Z,19.40
2022-10-15T15:03:43.873Z,19.40
2022-10-15T15:06:10.662Z,19.40
2022-10-15T15:08:37.471Z,19.40
2022-10-15T15:11:07.542Z,19.40
2022-10-15T15:13:41.045Z,19.40
2022-10-15T15:16:12.116Z,19.50
2022-10-15T15:18:39.132Z,19.50
2022-10-15T15:21:07.875Z,19.40
2022-10-15T15:23:35.466Z,19.50
2022-10-15T15:26:02.909Z,19.50
2022-10-15T15:28:29.772Z,19.50
2022-10-15T15:31:02.584Z,19.50
2022-10-15T15:33:29.567Z,19.50
2022-10-15T15:36:10.556Z,19.40
2022-10-15T15:38:37.340Z,19.50
2022-10-15T15:41:12.770Z,19.50
2022-10-15T15:43:40.155Z,19.50
2022-10-15T15:46:07.626Z,19.50
2022-10-15T15:48:34.563Z,19.50
2022-10-15T15:51:07.379Z,19.50
2022-10-15T15:53:35.341Z,19.50
2022-10-15T15:56:02.134Z,19.40
2022-10-15T15:58:28.939Z,19.40
2022-10-15T16:00:55.776Z,19.50
2022-10-15T16:03:22.619Z,19.40
2022-10-15T16:08:22.932Z,19.40
2022-10-15T16:10:49.691Z,19.40
2022-10-15T16:13:16.464Z,19.40
2022-10-15T16:15:43.381Z,19.40
2022-10-15T16:18:10.801Z,19.30
2022-10-15T16:20:39.642Z,19.40
2022-10-15T16:23:06.506Z,19.40
2022-10-15T16:25:33.325Z,19.40
2022-10-15T16:28:01.930Z,19.40
2022-10-15T16:30:29.267Z,19.40
2022-10-15T16:32:56.223Z,19.40
2022-10-15T16:35:23.296Z,19.40
2022-10-15T16:37:52.698Z,19.40
2022-10-15T16:40:19.572Z,19.40
2022-10-15T16:42:46.699Z,19.40
2022-10-15T16:45:13.794Z,19.40
2022-10-15T16:47:40.571Z,19.40
2022-10-15T16:50:08.146Z,19.30
2022-10-15T16:52:35.261Z,19.30
2022-10-15T16:55:02.044Z,19.30
2022-10-15T16:57:29.003Z,19.40
2022-10-15T16:59:55.813Z,19.40
2022-10-15T17:02:22.788Z,19.30
2022-10-15T17:04:49.824Z,19.30
2022-10-15T17:07:17.399Z,19.30
2022-10-15T17:09:45.096Z,19.20
2022-10-15T17:12:12.087Z,19.20
2022-10-15T17:14:38.839Z,19.20
2022-10-15T17:17:07.689Z,19.10
2022-10-15T17:19:35.133Z,19.10
2022-10-15T17:22:02.023Z,19.10
2022-10-15T17:24:28.949Z,19.00
2022-10-15T17:26:57.952Z,19.00
2022-10-15T17:29:27.870Z,19.00
2022-10-15T17:31:57.962Z,19.00
2022-10-15T17:34:26.048Z,19.00
2022-10-15T17:36:53.984Z,19.00
2022-10-15T17:39:22.485Z,19.00
2022-10-15T17:41:51.241Z,19.00
2022-10-15T17:44:18.438Z,19.10
2022-10-15T17:46:45.437Z,19.10
2022-10-15T17:49:15.124Z,19.10
2022-10-15T17:51:42.176Z,19.00
2022-10-15T17:54:09.045Z,19.00
2022-10-15T17:56:38.403Z,19.00
2022-10-15T17:59:07.996Z,19.00
2022-10-15T18:04:24.805Z,18.90
2022-10-15T18:06:51.630Z,18.90
2022-10-15T18:09:18.410Z,18.90
2022-10-15T18:11:46.602Z,19.00
2022-10-15T18:14:13.644Z,19.00
2022-10-15T18:16:40.445Z,18.90
2022-10-15T18:19:07.191Z,18.90
2022-10-15T18:21:34.003Z,18.90
2022-10-15T18:24:01.019Z,18.80
2022-10-15T18:26:28.051Z,18.80
2022-10-15T18:28:54.993Z,18.90
2022-10-15T18:31:25.155Z,18.90
2022-10-15T18:33:54.826Z,18.80
2022-10-15T18:36:29.943Z,18.90
2022-10-15T18:38:57.431Z,18.90
2022-10-15T18:41:30.266Z,18.90
2022-10-15T18:43:59.683Z,18.90
2022-10-15T18:46:27.920Z,18.90
2022-10-15T18:48:55.023Z,18.90
2022-10-15T18:51:23.008Z,18.90
2022-10-15T18:53:49.870Z,18.90
2022-10-15T18:56:17.112Z,18.80
2022-10-15T18:58:44.011Z,18.90
2022-10-15T19:01:34.151Z,18.80
2022-10-15T19:04:04.326Z,18.80
2022-10-15T19:06:35.616Z,18.80
2022-10-15T19:09:04.861Z,18.80
2022-10-15T19:11:32.283Z,18.80
2022-10-15T19:14:00.709Z,18.80
2022-10-15T19:16:29.554Z,18.80
2022-10-15T19:18:56.595Z,18.80
2022-10-15T19:21:23.398Z,18.80
2022-10-15T19:23:50.350Z,18.80
2022-10-15T19:26:17.573Z,18.80
2022-10-15T19:28:44.890Z,18.80
2022-10-15T19:31:18.392Z,18.80
2022-10-15T19:33:45.260Z,18.80
2022-10-15T19:36:18.429Z,18.80
2022-10-15T19:38:45.200Z,18.80
2022-10-15T19:41:12.017Z,18.70
2022-10-15T19:43:38.802Z,20.10
2022-10-15T19:46:05.909Z,18.70
2022-10-15T19:48:32.676Z,18.80
2022-10-15T19:51:01.973Z,18.80
2022-10-15T19:53:29.412Z,18.80
2022-10-15T19:55:58.694Z,18.80
2022-10-15T19:58:25.764Z,18.80
2022-10-15T20:00:53.767Z,18.80
2022-10-15T20:03:25.831Z,18.80
2022-10-15T20:05:53.218Z,18.80
2022-10-15T20:08:20.155Z,18.80
2022-10-15T20:10:51.259Z,18.80
2022-10-15T20:13:19.927Z,18.70
2022-10-15T20:15:48.563Z,18.30
2022-10-15T20:18:16.361Z,18.70
2022-10-15T20:20:45.506Z,18.70
2022-10-15T20:23:14.671Z,18.70
2022-10-15T20:25:42.956Z,18.70
2022-10-15T20:28:11.236Z,18.70
2022-10-15T20:30:39.251Z,18.70
2022-10-15T20:33:07.528Z,18.70
2022-10-15T20:35:35.654Z,18.70
2022-10-15T20:38:02.697Z,18.60
2022-10-15T20:40:30.176Z,18.60
2022-10-15T20:42:57.295Z,18.60
2022-10-15T20:45:29.480Z,18.60
2022-10-15T20:47:58.111Z,18.60
2022-10-15T20:50:30.069Z,18.60
2022-10-15T20:52:57.836Z,18.60
2022-10-15T20:55:24.926Z,18.60
2022-10-15T20:57:51.859Z,18.60
2022-10-15T21:00:18.892Z,18.60
2022-10-15T21:02:45.620Z,18.50
2022-10-15T21:05:12.768Z,18.50
2022-10-15T21:07:39.608Z,18.50
2022-10-15T21:10:06.742Z,18.60
2022-10-15T21:12:33.469Z,18.60
2022-10-15T21:15:00.274Z,18.60
2022-10-15T21:17:27.630Z,18.50
2022-10-15T21:19:54.641Z,18.50
2022-10-15T21:22:21.618Z,18.50
2022-10-15T21:24:48.448Z,18.50
2022-10-15T21:27:15.248Z,18.50
2022-10-15T21:29:42.972Z,18.60
2022-10-15T21:32:10.171Z,18.60
2022-10-15T21:34:37.132Z,18.50
2022-10-15T21:37:03.954Z,18.60
2022-10-15T21:39:30.871Z,18.60
2022-10-15T21:41:57.847Z,18.50
2022-10-15T21:44:24.629Z,18.60
2022-10-15T21:46:51.407Z,18.50
2022-10-15T21:49:18.205Z,18.60
2022-10-15T21:51:45.205Z,18.60
2022-10-15T21:54:12.049Z,18.50
2022-10-15T21:56:38.914Z,18.60
2022-10-15T21:59:05.954Z,18.50
2022-10-15T22:01:35.520Z,18.50
2022-10-15T22:04:04.877Z,18.50
2022-10-15T22:06:32.336Z,18.60
2022-10-15T22:08:59.497Z,18.50
2022-10-15T22:11:31.329Z,18.50
2022-10-15T22:14:00.759Z,18.60
2022-10-15T22:16:28.794Z,18.60
2022-10-15T22:18:56.540Z,18.60
2022-10-15T22:21:26.185Z,18.60
2022-10-15T22:23:58.743Z,18.60
2022-10-15T22:26:27.860Z,18.50
2022-10-15T22:28:57.745Z,18.50
2022-10-15T22:31:25.085Z,18.50
2022-10-15T22:33:52.552Z,18.40
2022-10-15T22:36:25.167Z,18.40
2022-10-15T22:39:01.774Z,18.40
2022-10-15T22:41:31.274Z,18.30
2022-10-15T22:43:58.441Z,18.30
2022-10-15T22:46:26.237Z,18.30
2022-10-15T22:48:53.687Z,18.30
2022-10-15T22:51:21.254Z,18.30
2022-10-15T22:53:48.448Z,18.30
2022-10-15T22:56:19.070Z,19.40
2022-10-15T22:58:46.028Z,18.30
2022-10-15T23:01:17.876Z,18.30
2022-10-15T23:03:46.984Z,18.20
2022-10-15T23:06:14.568Z,18.20
2022-10-15T23:08:41.889Z,18.20
2022-10-15T23:11:14.899Z,18.20
2022-10-15T23:13:43.151Z,18.30
2022-10-15T23:16:28.089Z,18.20
2022-10-15T23:18:57.287Z,18.20
2022-10-15T23:22:03.452Z,18.20
2022-10-15T23:24:30.232Z,18.20
2022-10-15T23:26:56.975Z,18.20
2022-10-15T23:29:25.503Z,18.30
2022-10-15T23:31:53.182Z,18.20
2022-10-15T23:34:24.888Z,18.20
2022-10-15T23:36:52.694Z,18.20
2022-10-15T23:39:22.324Z,18.20
2022-10-15T23:41:49.881Z,18.20
2022-10-15T23:44:16.987Z,18.20
2022-10-15T23:46:44.059Z,18.20
2022-10-15T23:49:11.157Z,18.20
2022-10-15T23:51:38.368Z,18.20
2022-10-15T23:54:13.744Z,18.20
2022-10-15T23:56:40.502Z,18.20
2022-10-15T23:59:08.164Z,18.20
